createdAt,value
2023-03-04T00:00:06.459Z,9.43
2023-03-04T00:01:11.683Z,6.88
2023-03-04T00:02:13.377Z,5.60
2023-03-04T00:03:18.959Z,8.35
2023-03-04T00:04:20.540Z,6.28
2023-03-04T00:05:23.057Z,5.65
2023-03-04T00:06:25.965Z,7.80
2023-03-04T00:07:28.471Z,7.90
2023-03-04T00:08:30.637Z,7.90
2023-03-04T00:09:34.261Z,4.15
2023-03-04T00:10:35.831Z,9.25
2023-03-04T00:11:38.707Z,6.70
2023-03-04T00:12:40.254Z,14.43
2023-03-04T00:13:43.663Z,14.13
2023-03-04T00:14:45.153Z,10.95
2023-03-04T00:15:48.060Z,10.13
2023-03-04T00:16:49.592Z,15.23
2023-03-04T00:17:52.074Z,9.50
2023-03-04T00:18:54.053Z,8.63
2023-03-04T00:19:56.617Z,9.50
2023-03-04T00:20:58.123Z,11.40
2023-03-04T00:22:02.022Z,7.45
2023-03-04T00:23:03.740Z,11.90
2023-03-04T00:24:07.169Z,14.43
2023-03-04T00:25:09.089Z,13.35
2023-03-04T00:26:13.206Z,12.85
2023-03-04T00:27:14.845Z,10.23
2023-03-04T00:28:17.384Z,11.77
2023-03-04T00:29:18.985Z,10.45
2023-03-04T00:30:21.856Z,6.13
2023-03-04T00:31:23.552Z,12.13
2023-03-04T00:32:26.248Z,6.95
2023-03-04T00:33:27.811Z,5.80
2023-03-04T00:34:32.756Z,8.32
2023-03-04T00:35:34.916Z,8.45
2023-03-04T00:36:37.791Z,6.10
2023-03-04T00:37:40.633Z,8.80
2023-03-04T00:38:43.182Z,11.15
2023-03-04T00:39:44.665Z,9.68
2023-03-04T00:40:47.150Z,7.80
2023-03-04T00:41:48.718Z,13.10
2023-03-04T00:42:51.252Z,8.90
2023-03-04T00:43:53.318Z,12.52
2023-03-04T00:44:55.838Z,14.52
2023-03-04T00:45:57.425Z,10.70
2023-03-04T00:47:00.850Z,14.20
2023-03-04T00:48:02.358Z,9.95
2023-03-04T00:49:06.172Z,7.13
2023-03-04T00:50:08.856Z,10.70
2023-03-04T00:51:11.370Z,9.10
2023-03-04T00:52:12.909Z,7.85
2023-03-04T00:53:16.761Z,6.68
2023-03-04T00:54:18.452Z,9.15
2023-03-04T00:55:21.486Z,15.00
2023-03-04T00:56:23.039Z,14.82
2023-03-04T00:57:25.688Z,9.98
2023-03-04T00:58:27.212Z,7.07
2023-03-04T00:59:29.708Z,8.52
2023-03-04T01:00:31.343Z,7.28
2023-03-04T01:01:35.626Z,11.30
2023-03-04T01:02:37.195Z,14.20
2023-03-04T01:03:41.383Z,10.52
2023-03-04T01:04:43.050Z,8.20
2023-03-04T01:05:45.880Z,9.65
2023-03-04T01:06:47.379Z,10.23
2023-03-04T01:07:50.264Z,14.02
2023-03-04T01:08:53.533Z,8.25
2023-03-04T01:09:56.069Z,10.10
2023-03-04T01:10:57.594Z,13.85
2023-03-04T01:12:00.134Z,11.23
2023-03-04T01:13:01.691Z,9.40
2023-03-04T01:14:04.306Z,14.75
2023-03-04T01:15:06.842Z,14.18
2023-03-04T01:16:10.851Z,9.88
2023-03-04T01:17:12.897Z,6.65
2023-03-04T01:18:15.545Z,13.52
2023-03-04T01:19:17.117Z,9.50
2023-03-04T01:20:20.026Z,13.18
2023-03-04T01:21:21.703Z,8.90
2023-03-04T01:22:24.200Z,13.75
2023-03-04T01:23:25.808Z,12.07
2023-03-04T01:24:29.913Z,11.48
2023-03-04T01:25:31.699Z,10.23
2023-03-04T01:26:34.559Z,15.25
2023-03-04T01:27:36.274Z,9.27
2023-03-04T01:28:38.800Z,10.18
2023-03-04T01:29:40.328Z,16.25
2023-03-04T01:30:42.916Z,11.52
2023-03-04T01:31:44.497Z,12.30
2023-03-04T01:32:47.015Z,8.48
2023-03-04T01:33:48.669Z,17.10
2023-03-04T01:34:51.536Z,7.00
2023-03-04T01:35:53.598Z,15.23
2023-03-04T01:36:56.398Z,19.10
2023-03-04T01:37:57.931Z,15.82
2023-03-04T01:39:00.488Z,11.15
2023-03-04T01:40:05.342Z,9.02
2023-03-04T01:41:08.009Z,16.75
2023-03-04T01:42:16.901Z,7.95
2023-03-04T01:43:23.821Z,16.80
2023-03-04T01:44:25.472Z,10.52
2023-03-04T01:45:28.069Z,13.55
2023-03-04T01:46:31.529Z,16.25
2023-03-04T01:47:36.077Z,10.23
2023-03-04T01:48:39.080Z,12.35
2023-03-04T01:49:42.140Z,7.30
2023-03-04T01:50:43.917Z,11.98
2023-03-04T01:51:49.857Z,14.30
2023-03-04T01:53:01.817Z,12.63
2023-03-04T01:54:05.156Z,9.10
2023-03-04T01:55:15.989Z,9.60
2023-03-04T01:56:22.959Z,8.70
2023-03-04T01:57:26.391Z,12.48
2023-03-04T01:58:31.481Z,13.02
2023-03-04T01:59:33.024Z,10.13
2023-03-04T02:00:37.191Z,7.10
2023-03-04T02:01:44.576Z,19.50
2023-03-04T02:02:47.332Z,9.25
2023-03-04T02:03:48.925Z,11.55
2023-03-04T02:04:51.390Z,6.40
2023-03-04T02:05:53.688Z,12.23
2023-03-04T02:06:57.721Z,9.38
2023-03-04T02:08:01.373Z,12.00
2023-03-04T02:09:05.442Z,7.70
2023-03-04T02:10:10.394Z,22.23
2023-03-04T02:11:12.898Z,16.02
2023-03-04T02:12:14.434Z,12.85
2023-03-04T02:13:17.938Z,16.65
2023-03-04T02:14:20.589Z,10.50
2023-03-04T02:15:24.138Z,16.67
2023-03-04T02:16:25.682Z,14.77
2023-03-04T02:17:29.101Z,15.73
2023-03-04T02:18:30.807Z,16.73
2023-03-04T02:19:43.558Z,14.25
2023-03-04T02:20:54.358Z,11.02
2023-03-04T02:21:56.949Z,13.20
2023-03-04T02:23:06.296Z,14.90
2023-03-04T02:24:16.373Z,11.63
2023-03-04T02:25:24.125Z,11.57
2023-03-04T02:26:30.042Z,15.70
2023-03-04T02:27:31.720Z,12.02
2023-03-04T02:28:34.230Z,13.30
2023-03-04T02:29:35.798Z,15.18
2023-03-04T02:30:38.413Z,7.82
2023-03-04T02:31:42.230Z,15.05
2023-03-04T02:32:44.755Z,15.70
2023-03-04T02:33:46.299Z,15.27
2023-03-04T02:34:51.265Z,17.02
2023-03-04T02:35:52.998Z,13.02
2023-03-04T02:36:57.146Z,12.18
2023-03-04T02:37:58.735Z,9.45
2023-03-04T02:39:14.279Z,13.90
2023-03-04T02:40:22.336Z,11.63
2023-03-04T02:41:36.409Z,18.25
2023-03-04T02:42:38.667Z,16.38
2023-03-04T02:43:41.231Z,11.38
2023-03-04T02:44:46.337Z,16.00
2023-03-04T02:45:50.301Z,13.70
2023-03-04T02:46:52.612Z,10.35
2023-03-04T02:47:55.126Z,13.48
2023-03-04T02:48:56.650Z,13.10
2023-03-04T02:49:59.177Z,14.95
2023-03-04T02:51:00.725Z,11.68
2023-03-04T02:52:05.903Z,9.50
2023-03-04T02:53:07.543Z,11.48
2023-03-04T02:54:16.304Z,10.80
2023-03-04T02:55:17.819Z,14.90
2023-03-04T02:56:20.487Z,11.40
2023-03-04T02:57:23.368Z,8.68
2023-03-04T02:58:26.139Z,12.70
2023-03-04T02:59:28.266Z,12.45
2023-03-04T03:00:31.222Z,14.00
2023-03-04T03:01:33.817Z,20.40
2023-03-04T03:02:36.365Z,17.52
2023-03-04T03:03:38.895Z,6.60
2023-03-04T03:04:41.197Z,11.50
2023-03-04T03:05:43.705Z,25.17
2023-03-04T03:06:45.452Z,16.90
2023-03-04T03:07:47.976Z,15.35
2023-03-04T03:08:49.478Z,15.23
2023-03-04T03:09:52.104Z,12.77
2023-03-04T03:10:54.116Z,15.50
2023-03-04T03:11:56.589Z,17.73
2023-03-04T03:12:59.828Z,10.73
2023-03-04T03:14:02.460Z,15.45
2023-03-04T03:15:04.758Z,5.38
2023-03-04T03:16:07.797Z,7.88
2023-03-04T03:17:10.300Z,7.22
2023-03-04T03:18:13.168Z,12.93
2023-03-04T03:19:14.804Z,10.82
2023-03-04T03:20:18.415Z,12.98
2023-03-04T03:21:19.993Z,22.02
2023-03-04T03:22:32.492Z,12.15
2023-03-04T03:23:34.093Z,8.45
2023-03-04T03:24:36.652Z,8.55
2023-03-04T03:25:38.235Z,12.38
2023-03-04T03:26:40.883Z,15.18
2023-03-04T03:27:42.711Z,14.23
2023-03-04T03:28:46.833Z,15.00
2023-03-04T03:29:48.694Z,12.80
2023-03-04T03:30:51.408Z,10.80
2023-03-04T03:31:53.034Z,20.33
2023-03-04T03:32:55.851Z,14.70
2023-03-04T03:33:57.396Z,10.18
2023-03-04T03:34:59.974Z,18.67
2023-03-04T03:36:02.121Z,9.48
2023-03-04T03:37:04.752Z,14.30
2023-03-04T03:38:06.846Z,13.93
2023-03-04T03:39:09.379Z,15.90
2023-03-04T03:40:12.387Z,14.85
2023-03-04T03:41:15.125Z,12.90
2023-03-04T03:42:16.633Z,8.60
2023-03-04T03:43:19.366Z,11.30
2023-03-04T03:44:22.267Z,8.90
2023-03-04T03:45:24.811Z,13.45
2023-03-04T03:46:27.221Z,14.85
2023-03-04T03:47:29.724Z,19.10
2023-03-04T03:48:31.269Z,14.68
2023-03-04T03:49:33.882Z,13.07
2023-03-04T03:50:35.661Z,12.57
2023-03-04T03:51:38.124Z,20.17
2023-03-04T03:52:39.640Z,13.88
2023-03-04T03:53:42.149Z,14.32
2023-03-04T03:54:43.975Z,15.07
2023-03-04T03:55:46.458Z,11.38
2023-03-04T03:56:47.987Z,20.60
2023-03-04T03:57:50.483Z,10.38
2023-03-04T03:58:52.017Z,15.63
2023-03-04T03:59:56.027Z,8.60
2023-03-04T04:00:58.610Z,14.27
2023-03-04T04:02:01.314Z,12.43
2023-03-04T04:03:03.130Z,14.40
2023-03-04T04:04:05.976Z,12.45
2023-03-04T04:05:08.899Z,21.27
2023-03-04T04:06:11.375Z,16.50
2023-03-04T04:07:13.055Z,11.13
2023-03-04T04:08:16.191Z,10.68
2023-03-04T04:09:17.714Z,16.33
2023-03-04T04:10:23.416Z,11.85
2023-03-04T04:11:24.959Z,9.48
2023-03-04T04:12:28.072Z,24.80
2023-03-04T04:13:29.751Z,12.68
2023-03-04T04:14:32.279Z,16.25
2023-03-04T04:15:36.511Z,14.82
2023-03-04T04:16:39.047Z,10.40
2023-03-04T04:17:40.673Z,9.00
2023-03-04T04:18:43.155Z,8.63
2023-03-04T04:19:44.695Z,14.10
2023-03-04T04:20:47.402Z,9.45
2023-03-04T04:21:49.019Z,22.35
2023-03-04T04:22:51.878Z,23.50
2023-03-04T04:23:53.436Z,10.77
2023-03-04T04:24:56.129Z,11.82
2023-03-04T04:25:57.814Z,9.63
2023-03-04T04:27:00.340Z,13.00
2023-03-04T04:28:02.040Z,12.57
2023-03-04T04:29:04.612Z,15.25
2023-03-04T04:30:07.079Z,12.93
2023-03-04T04:31:11.290Z,7.78
2023-03-04T04:32:13.155Z,16.13
2023-03-04T04:33:17.010Z,10.02
2023-03-04T04:34:19.496Z,18.90
2023-03-04T04:35:21.333Z,10.93
2023-03-04T04:36:23.863Z,10.63
2023-03-04T04:37:26.353Z,18.02
2023-03-04T04:38:27.964Z,10.75
2023-03-04T04:39:30.550Z,12.07
2023-03-04T04:40:32.044Z,10.82
2023-03-04T04:41:38.578Z,8.00
2023-03-04T04:42:40.091Z,12.75
2023-03-04T04:43:42.870Z,10.13
2023-03-04T04:44:44.749Z,14.70
2023-03-04T04:45:47.534Z,16.08
2023-03-04T04:46:50.429Z,15.02
2023-03-04T04:47:53.070Z,13.05
2023-03-04T04:48:54.592Z,9.98
2023-03-04T04:49:57.097Z,12.05
2023-03-04T04:50:58.658Z,7.88
2023-03-04T04:52:01.567Z,18.92
2023-03-04T04:53:03.075Z,8.45
2023-03-04T04:54:06.072Z,10.38
2023-03-04T04:55:08.455Z,11.57
2023-03-04T04:56:12.640Z,10.90
2023-03-04T04:57:14.372Z,12.10
2023-03-04T04:58:17.016Z,10.55
2023-03-04T04:59:18.548Z,6.38
2023-03-04T05:00:21.958Z,13.20
2023-03-04T05:01:25.319Z,10.30
2023-03-04T05:02:29.210Z,11.00
2023-03-04T05:03:31.442Z,20.95
2023-03-04T05:04:33.967Z,9.07
2023-03-04T05:05:35.902Z,10.52
2023-03-04T05:06:38.620Z,15.48
2023-03-04T05:07:40.785Z,11.45
2023-03-04T05:08:43.700Z,7.82
2023-03-04T05:09:45.805Z,9.73
2023-03-04T05:10:48.804Z,11.68
2023-03-04T05:11:50.464Z,14.18
2023-03-04T05:12:52.996Z,13.13
2023-03-04T05:13:54.680Z,17.27
2023-03-04T05:14:57.221Z,8.68
2023-03-04T05:15:59.706Z,6.55
2023-03-04T05:17:02.384Z,11.60
2023-03-04T05:18:05.331Z,14.30
2023-03-04T05:19:08.142Z,10.05
2023-03-04T05:20:10.752Z,8.48
2023-03-04T05:21:13.383Z,9.80
2023-03-04T05:22:15.054Z,12.45
2023-03-04T05:23:17.769Z,11.40
2023-03-04T05:24:19.574Z,15.35
2023-03-04T05:25:22.312Z,12.43
2023-03-04T05:26:23.935Z,11.35
2023-03-04T05:27:26.474Z,6.53
2023-03-04T05:28:28.053Z,15.23
2023-03-04T05:29:31.324Z,13.13
2023-03-04T05:30:32.992Z,13.55
2023-03-04T05:31:35.572Z,3.80
2023-03-04T05:32:37.154Z,12.95
2023-03-04T05:33:41.152Z,9.30
2023-03-04T05:34:42.859Z,9.77
2023-03-04T05:35:48.317Z,6.10
2023-03-04T05:36:50.081Z,10.88
2023-03-04T05:37:52.744Z,13.90
2023-03-04T05:38:54.321Z,10.15
2023-03-04T05:39:56.878Z,12.07
2023-03-04T05:41:02.619Z,9.20
2023-03-04T05:42:05.322Z,12.40
2023-03-04T05:43:06.971Z,10.38
2023-03-04T05:44:09.508Z,11.70
2023-03-04T05:45:11.845Z,4.80
2023-03-04T05:46:15.547Z,5.80
2023-03-04T05:47:22.677Z,6.88
2023-03-04T05:48:26.169Z,10.38
2023-03-04T05:49:29.310Z,7.32
2023-03-04T05:50:32.291Z,11.05
2023-03-04T05:51:33.901Z,7.93
2023-03-04T05:52:36.467Z,10.77
2023-03-04T05:53:39.242Z,11.10
2023-03-04T05:54:41.780Z,13.73
2023-03-04T05:55:47.126Z,13.00
2023-03-04T05:56:49.717Z,7.50
2023-03-04T05:57:51.241Z,10.50
2023-03-04T05:58:54.000Z,9.85
2023-03-04T05:59:55.701Z,6.78
2023-03-04T06:01:00.893Z,11.82
2023-03-04T06:02:02.476Z,11.68
2023-03-04T06:03:05.164Z,11.27
2023-03-04T06:04:07.022Z,15.93
2023-03-04T06:05:12.460Z,5.28
2023-03-04T06:06:14.357Z,9.45
2023-03-04T06:07:17.011Z,9.77
2023-03-04T06:08:18.634Z,10.85
2023-03-04T06:09:21.945Z,5.63
2023-03-04T06:10:23.725Z,12.55
2023-03-04T06:11:26.257Z,10.45
2023-03-04T06:12:28.706Z,5.85
2023-03-04T06:13:31.177Z,6.10
2023-03-04T06:14:33.017Z,7.97
2023-03-04T06:15:35.546Z,13.75
2023-03-04T06:16:37.090Z,9.70
2023-03-04T06:17:42.226Z,10.52
2023-03-04T06:18:44.072Z,8.18
2023-03-04T06:19:46.591Z,15.32
2023-03-04T06:20:50.784Z,14.77
2023-03-04T06:21:52.377Z,12.40
2023-03-04T06:22:54.884Z,17.17
2023-03-04T06:23:56.418Z,4.78
2023-03-04T06:24:58.921Z,13.45
2023-03-04T06:26:00.951Z,5.35
2023-03-04T06:27:04.062Z,14.98
2023-03-04T06:28:05.709Z,11.30
2023-03-04T06:29:08.382Z,13.38
2023-03-04T06:30:11.467Z,11.10
2023-03-04T06:31:14.049Z,7.40
2023-03-04T06:32:15.755Z,7.35
2023-03-04T06:33:18.266Z,5.72
2023-03-04T06:34:20.149Z,5.20
2023-03-04T06:35:23.009Z,6.85
2023-03-04T06:36:25.890Z,8.25
2023-03-04T06:37:28.394Z,9.45
2023-03-04T06:38:29.906Z,9.02
2023-03-04T06:39:32.765Z,7.03
2023-03-04T06:40:34.456Z,10.18
2023-03-04T06:41:37.400Z,6.97
2023-03-04T06:42:40.140Z,9.23
2023-03-04T06:43:42.636Z,13.20
2023-03-04T06:44:44.206Z,10.10
2023-03-04T06:45:46.773Z,9.57
2023-03-04T06:46:48.363Z,8.40
2023-03-04T06:47:51.013Z,6.80
2023-03-04T06:48:52.619Z,17.15
2023-03-04T06:49:55.410Z,5.97
2023-03-04T06:50:56.977Z,16.45
2023-03-04T06:52:00.833Z,6.57
2023-03-04T06:53:02.424Z,8.07
2023-03-04T06:54:05.000Z,10.60
2023-03-04T06:55:08.152Z,9.65
2023-03-04T06:56:13.264Z,9.27
2023-03-04T06:57:14.874Z,8.07
2023-03-04T06:58:18.039Z,9.23
2023-03-04T06:59:19.564Z,10.07
2023-03-04T07:00:23.873Z,7.25
2023-03-04T07:01:29.103Z,14.20
2023-03-04T07:02:31.931Z,9.50
2023-03-04T07:03:33.542Z,10.32
2023-03-04T07:04:36.080Z,8.95
2023-03-04T07:05:37.621Z,5.97
2023-03-04T07:06:40.100Z,9.70
2023-03-04T07:07:43.007Z,8.52
2023-03-04T07:08:46.423Z,6.35
2023-03-04T07:09:48.028Z,6.13
2023-03-04T07:10:51.097Z,5.40
2023-03-04T07:11:52.751Z,9.07
2023-03-04T07:12:55.243Z,6.07
2023-03-04T07:13:56.962Z,10.38
2023-03-04T07:14:59.452Z,11.52
2023-03-04T07:16:01.573Z,6.28
2023-03-04T07:17:04.165Z,15.40
2023-03-04T07:18:06.783Z,10.45
2023-03-04T07:19:08.290Z,11.07
2023-03-04T07:20:12.072Z,10.90
2023-03-04T07:21:15.001Z,10.88
2023-03-04T07:22:17.479Z,7.07
2023-03-04T07:23:20.858Z,12.15
2023-03-04T07:24:23.328Z,6.18
2023-03-04T07:25:24.840Z,10.68
2023-03-04T07:26:27.336Z,8.98
2023-03-04T07:27:29.831Z,16.90
2023-03-04T07:28:31.689Z,8.40
2023-03-04T07:29:34.294Z,11.02
2023-03-04T07:30:35.812Z,6.38
2023-03-04T07:31:38.670Z,7.18
2023-03-04T07:32:40.335Z,12.00
2023-03-04T07:33:43.045Z,7.20
2023-03-04T07:34:44.569Z,8.52
2023-03-04T07:35:47.164Z,12.73
2023-03-04T07:36:48.716Z,6.25
2023-03-04T07:37:51.260Z,8.70
2023-03-04T07:38:55.036Z,9.18
2023-03-04T07:39:57.544Z,10.45
2023-03-04T07:40:59.725Z,6.90
2023-03-04T07:42:02.282Z,13.40
2023-03-04T07:43:04.174Z,2.58
2023-03-04T07:44:09.045Z,10.77
2023-03-04T07:45:11.640Z,12.05
2023-03-04T07:46:15.221Z,8.95
2023-03-04T07:47:16.759Z,9.30
2023-03-04T07:48:19.254Z,11.93
2023-03-04T07:49:21.743Z,9.98
2023-03-04T07:50:23.526Z,11.68
2023-03-04T07:51:28.122Z,7.43
2023-03-04T07:52:29.708Z,5.63
2023-03-04T07:53:32.871Z,8.45
2023-03-04T07:54:37.233Z,18.13
2023-03-04T07:55:48.866Z,8.95
2023-03-04T07:56:51.353Z,9.95
2023-03-04T07:57:52.895Z,4.93
2023-03-04T07:58:56.202Z,8.75
2023-03-04T07:59:57.807Z,7.93
2023-03-04T08:01:00.774Z,6.57
2023-03-04T08:02:03.413Z,11.18
2023-03-04T08:03:05.541Z,7.35
2023-03-04T08:04:08.837Z,10.30
2023-03-04T08:05:10.424Z,11.38
2023-03-04T08:06:15.255Z,7.95
2023-03-04T08:07:16.912Z,9.57
2023-03-04T08:08:19.707Z,6.30
2023-03-04T08:09:21.278Z,10.75
2023-03-04T08:10:25.197Z,17.08
2023-03-04T08:11:27.617Z,9.20
2023-03-04T08:12:30.314Z,12.00
2023-03-04T08:13:32.096Z,5.13
2023-03-04T08:14:34.859Z,11.55
2023-03-04T08:15:40.374Z,9.75
2023-03-04T08:16:42.942Z,12.38
2023-03-04T08:17:44.518Z,6.45
2023-03-04T08:18:49.570Z,6.93
2023-03-04T08:19:51.172Z,7.43
2023-03-04T08:20:55.704Z,7.10
2023-03-04T08:21:58.253Z,8.02
2023-03-04T08:22:59.811Z,5.78
2023-03-04T08:24:07.971Z,5.13
2023-03-04T08:25:09.820Z,7.65
2023-03-04T08:26:16.310Z,9.15
2023-03-04T08:27:17.826Z,14.55
2023-03-04T08:28:20.429Z,16.10
2023-03-04T08:29:23.541Z,5.75
2023-03-04T08:30:26.246Z,6.63
2023-03-04T08:31:28.903Z,8.48
2023-03-04T08:32:30.732Z,7.90
2023-03-04T08:33:33.908Z,9.98
2023-03-04T08:34:35.434Z,9.23
2023-03-04T08:35:41.253Z,8.68
2023-03-04T08:36:45.241Z,14.43
2023-03-04T08:37:46.815Z,8.80
2023-03-04T08:38:49.365Z,6.43
2023-03-04T08:39:50.896Z,4.07
2023-03-04T08:40:54.259Z,7.45
2023-03-04T08:41:57.123Z,6.55
2023-03-04T08:42:59.687Z,7.30
2023-03-04T08:44:02.472Z,4.45
2023-03-04T08:45:04.949Z,5.03
2023-03-04T08:46:07.779Z,7.70
2023-03-04T08:47:10.220Z,8.57
2023-03-04T08:48:13.012Z,6.03
2023-03-04T08:49:15.547Z,9.00
2023-03-04T08:50:17.205Z,18.50
2023-03-04T08:51:19.981Z,3.35
2023-03-04T08:52:21.605Z,6.95
2023-03-04T08:53:24.426Z,9.23
2023-03-04T08:54:26.967Z,3.92
2023-03-04T08:55:28.490Z,5.82
2023-03-04T08:56:31.136Z,9.48
2023-03-04T08:57:34.063Z,4.82
2023-03-04T08:58:36.691Z,14.73
2023-03-04T08:59:38.665Z,3.30
2023-03-04T09:00:44.661Z,5.30
2023-03-04T09:01:47.832Z,7.38
2023-03-04T09:02:49.512Z,9.70
2023-03-04T09:03:53.287Z,7.72
2023-03-04T09:04:55.114Z,5.25
2023-03-04T09:05:57.844Z,3.70
2023-03-04T09:07:00.349Z,5.82
2023-03-04T09:08:02.003Z,5.40
2023-03-04T09:09:04.712Z,4.82
2023-03-04T09:10:07.339Z,7.57
2023-03-04T09:11:09.861Z,9.07
2023-03-04T09:12:11.513Z,6.30
2023-03-04T09:13:16.151Z,5.85
2023-03-04T09:14:18.779Z,3.40
2023-03-04T09:15:20.383Z,5.70
2023-03-04T09:16:22.944Z,7.10
2023-03-04T09:17:24.821Z,6.10
2023-03-04T09:18:28.263Z,4.13
2023-03-04T09:19:33.215Z,8.77
2023-03-04T09:20:34.865Z,5.88
2023-03-04T09:21:37.640Z,6.70
2023-03-04T09:22:40.058Z,4.53
2023-03-04T09:23:42.702Z,6.55
2023-03-04T09:24:44.269Z,7.68
2023-03-04T09:25:47.667Z,6.00
2023-03-04T09:26:50.696Z,3.08
2023-03-04T09:27:53.653Z,6.63
2023-03-04T09:28:58.596Z,4.93
2023-03-04T09:30:01.152Z,3.88
2023-03-04T09:31:02.718Z,3.80
2023-03-04T09:32:05.629Z,4.38
2023-03-04T09:33:07.293Z,4.85
2023-03-04T09:34:09.891Z,6.22
2023-03-04T09:35:11.690Z,5.07
2023-03-04T09:36:16.172Z,6.63
2023-03-04T09:37:17.863Z,5.07
2023-03-04T09:38:20.339Z,4.43
2023-03-04T09:39:31.954Z,8.55
2023-03-04T09:40:40.431Z,6.70
2023-03-04T09:41:44.214Z,1.75
2023-03-04T09:42:50.985Z,1.33
2023-03-04T09:43:54.464Z,2.80
2023-03-04T09:44:59.580Z,2.45
2023-03-04T09:46:04.536Z,6.00
2023-03-04T09:47:13.144Z,3.47
2023-03-04T09:48:19.322Z,6.82
2023-03-04T09:49:23.041Z,3.42
2023-03-04T09:50:26.277Z,4.03
2023-03-04T09:51:45.047Z,6.43
2023-03-04T09:53:07.567Z,4.75
2023-03-04T09:54:15.458Z,4.55
2023-03-04T09:55:22.733Z,4.18
2023-03-04T09:56:26.567Z,3.25
2023-03-04T09:57:40.510Z,3.58
2023-03-04T09:58:52.051Z,7.50
2023-03-04T10:00:02.631Z,2.17
2023-03-04T10:01:18.778Z,3.50
2023-03-04T10:02:47.199Z,3.47
2023-03-04T10:04:17.664Z,9.02
2023-03-04T10:05:45.269Z,3.35
2023-03-04T10:07:14.245Z,5.03
2023-03-04T10:08:44.792Z,5.40
2023-03-04T10:10:14.103Z,7.10
2023-03-04T10:11:41.641Z,1.98
2023-03-04T10:13:05.690Z,3.65
2023-03-04T10:14:35.028Z,3.92
2023-03-04T10:16:02.614Z,3.90
2023-03-04T10:17:31.732Z,1.67
2023-03-04T10:18:58.166Z,3.13
2023-03-04T10:20:23.559Z,7.13
2023-03-04T10:21:47.496Z,13.52
2023-03-04T10:23:12.839Z,9.18
2023-03-04T10:24:36.549Z,5.63
2023-03-04T10:26:02.944Z,3.92
2023-03-04T10:27:26.591Z,4.78
2023-03-04T10:28:50.425Z,3.15
2023-03-04T10:30:02.116Z,5.07
2023-03-04T10:31:35.000Z,3.80
2023-03-04T10:32:57.744Z,4.55
2023-03-04T10:34:20.285Z,3.05
2023-03-04T10:35:46.233Z,3.40
2023-03-04T10:37:09.901Z,6.93
2023-03-04T10:38:34.145Z,4.15
2023-03-04T10:39:56.611Z,3.17
2023-03-04T10:41:22.442Z,4.22
2023-03-04T10:42:44.956Z,4.65
2023-03-04T10:44:17.318Z,5.40
2023-03-04T10:45:40.764Z,6.47
2023-03-04T10:46:55.856Z,3.83
2023-03-04T10:47:58.716Z,9.10
2023-03-04T10:49:00.441Z,5.85
2023-03-04T10:50:05.596Z,7.88
2023-03-04T10:51:18.105Z,2.65
2023-03-04T10:52:28.583Z,4.20
2023-03-04T10:53:33.542Z,3.42
2023-03-04T10:54:48.420Z,3.83
2023-03-04T10:55:50.085Z,5.10
2023-03-04T10:56:59.557Z,3.03
2023-03-04T10:58:04.160Z,3.10
2023-03-04T10:59:32.456Z,6.80
2023-03-04T11:00:36.654Z,4.85
2023-03-04T11:01:50.323Z,3.55
2023-03-04T11:02:54.307Z,4.55
2023-03-04T11:03:57.187Z,4.35
2023-03-04T11:05:19.415Z,3.35
2023-03-04T11:06:22.768Z,10.45
2023-03-04T11:07:27.150Z,3.38
2023-03-04T11:08:28.765Z,5.55
2023-03-04T11:09:32.473Z,9.55
2023-03-04T11:10:41.681Z,4.00
2023-03-04T11:11:44.681Z,2.85
2023-03-04T11:12:51.527Z,17.50
2023-03-04T11:13:57.479Z,2.97
2023-03-04T11:15:00.246Z,3.47
2023-03-04T11:16:04.901Z,6.90
2023-03-04T11:17:19.250Z,3.53
2023-03-04T11:18:30.534Z,8.00
2023-03-04T11:19:38.322Z,4.25
2023-03-04T11:20:43.832Z,10.30
2023-03-04T11:21:45.704Z,5.43
2023-03-04T11:22:48.422Z,9.75
2023-03-04T11:23:53.246Z,11.93
2023-03-04T11:25:00.345Z,3.50
2023-03-04T11:26:04.581Z,5.78
2023-03-04T11:27:13.671Z,4.13
2023-03-04T11:28:23.611Z,9.43
2023-03-04T11:29:30.234Z,5.53
2023-03-04T11:30:39.142Z,2.25
2023-03-04T11:31:47.307Z,4.90
2023-03-04T11:32:52.480Z,3.67
2023-03-04T11:34:01.418Z,4.38
2023-03-04T11:35:09.124Z,2.03
2023-03-04T11:36:25.253Z,3.05
2023-03-04T11:37:33.243Z,4.70
2023-03-04T11:38:39.372Z,2.42
2023-03-04T11:39:47.125Z,3.00
2023-03-04T11:40:54.287Z,3.83
2023-03-04T11:42:03.031Z,2.25
2023-03-04T11:43:12.352Z,3.80
2023-03-04T11:44:14.423Z,3.15
2023-03-04T11:45:29.186Z,2.55
2023-03-04T11:46:55.509Z,5.28
2023-03-04T11:48:08.520Z,1.63
2023-03-04T11:49:32.099Z,2.58
2023-03-04T11:50:49.260Z,7.60
2023-03-04T11:51:59.710Z,2.78
2023-03-04T11:53:24.939Z,2.03
2023-03-04T11:54:32.305Z,2.63
2023-03-04T11:55:41.941Z,5.13
2023-03-04T11:56:48.570Z,2.92
2023-03-04T11:58:01.685Z,1.48
2023-03-04T11:59:47.868Z,3.33
2023-03-04T12:00:55.195Z,2.03
2023-03-04T12:02:13.099Z,5.68
2023-03-04T12:03:30.945Z,3.05
2023-03-04T12:04:51.106Z,1.95
2023-03-04T12:06:01.512Z,6.65
2023-03-04T12:07:22.930Z,2.63
2023-03-04T12:08:43.944Z,4.00
2023-03-04T12:09:57.334Z,1.73
2023-03-04T12:11:06.112Z,2.67
2023-03-04T12:12:25.502Z,3.85
2023-03-04T12:13:55.699Z,6.47
2023-03-04T12:15:13.171Z,3.17
2023-03-04T12:16:28.159Z,3.13
2023-03-04T12:17:53.870Z,4.32
2023-03-04T12:19:07.241Z,3.53
2023-03-04T12:20:28.330Z,9.25
2023-03-04T12:21:51.815Z,6.65
2023-03-04T12:23:04.450Z,4.30
2023-03-04T12:24:26.789Z,3.45
2023-03-04T12:25:37.848Z,5.53
2023-03-04T12:26:47.251Z,2.15
2023-03-04T12:28:03.152Z,1.52
2023-03-04T12:29:13.102Z,3.95
2023-03-04T12:30:25.129Z,3.78
2023-03-04T12:31:34.387Z,6.18
2023-03-04T12:32:44.286Z,4.50
2023-03-04T12:34:00.073Z,5.72
2023-03-04T12:35:18.508Z,1.65
2023-03-04T12:36:32.071Z,2.85
2023-03-04T12:37:50.919Z,2.28
2023-03-04T12:39:01.555Z,3.20
2023-03-04T12:40:31.361Z,2.50
2023-03-04T12:41:44.762Z,5.05
2023-03-04T12:43:01.520Z,2.00
2023-03-04T12:44:16.861Z,4.05
2023-03-04T12:45:25.864Z,1.50
2023-03-04T12:46:38.119Z,2.28
2023-03-04T12:47:53.254Z,4.20
2023-03-04T12:49:13.440Z,4.10
2023-03-04T12:50:37.346Z,1.55
2023-03-04T12:51:50.081Z,2.42
2023-03-04T12:53:02.914Z,5.35
2023-03-04T12:54:22.166Z,5.80
2023-03-04T12:55:31.879Z,4.18
2023-03-04T12:56:39.934Z,3.22
2023-03-04T12:57:43.605Z,2.05
2023-03-04T12:58:45.322Z,2.30
2023-03-04T12:59:56.234Z,5.22
2023-03-04T13:01:07.591Z,2.30
2023-03-04T13:02:28.638Z,2.13
2023-03-04T13:03:41.971Z,2.17
2023-03-04T13:04:56.555Z,1.58
2023-03-04T13:06:16.417Z,2.92
2023-03-04T13:07:27.310Z,1.88
2023-03-04T13:08:35.395Z,1.98
2023-03-04T13:09:48.263Z,3.03
2023-03-04T13:10:51.097Z,1.98
2023-03-04T13:11:56.051Z,3.47
2023-03-04T13:13:00.264Z,3.65
2023-03-04T13:14:03.038Z,2.65
2023-03-04T13:15:30.237Z,4.07
2023-03-04T13:16:41.490Z,3.92
2023-03-04T13:17:45.749Z,5.15
2023-03-04T13:18:49.321Z,2.92
2023-03-04T13:19:52.960Z,5.63
2023-03-04T13:21:17.232Z,4.57
2023-03-04T13:22:47.077Z,5.57
2023-03-04T13:23:49.849Z,1.98
2023-03-04T13:24:52.364Z,2.03
2023-03-04T13:26:17.935Z,2.55
2023-03-04T13:27:46.281Z,2.10
2023-03-04T13:28:55.057Z,4.45
2023-03-04T13:29:56.654Z,2.25
2023-03-04T13:31:20.330Z,2.13
2023-03-04T13:32:38.240Z,2.88
2023-03-04T13:33:47.055Z,5.13
2023-03-04T13:34:51.764Z,2.15
2023-03-04T13:36:01.622Z,4.95
2023-03-04T13:37:04.783Z,1.90
2023-03-04T13:38:22.004Z,2.88
2023-03-04T13:39:38.367Z,5.85
2023-03-04T13:40:40.037Z,1.60
2023-03-04T13:41:48.420Z,1.92
2023-03-04T13:42:51.461Z,5.78
2023-03-04T13:43:54.209Z,3.05
2023-03-04T13:45:00.116Z,1.98
2023-03-04T13:46:30.341Z,5.00
2023-03-04T13:47:46.425Z,3.10
2023-03-04T13:49:02.158Z,5.05
2023-03-04T13:50:29.835Z,1.70
2023-03-04T13:51:34.800Z,1.90
2023-03-04T13:52:40.567Z,3.08
2023-03-04T13:53:49.732Z,2.70
2023-03-04T13:54:51.276Z,3.38
2023-03-04T13:56:21.965Z,4.60
2023-03-04T13:57:24.502Z,2.08
2023-03-04T13:58:27.146Z,1.67
2023-03-04T13:59:32.953Z,1.90
2023-03-04T14:00:36.524Z,1.80
2023-03-04T14:01:55.464Z,1.60
2023-03-04T14:02:56.997Z,3.50
2023-03-04T14:04:00.529Z,3.05
2023-03-04T14:05:02.445Z,1.58
2023-03-04T14:06:18.686Z,2.75
2023-03-04T14:07:25.831Z,2.17
2023-03-04T14:08:27.343Z,3.75
2023-03-04T14:09:33.263Z,2.55
2023-03-04T14:10:34.858Z,2.50
2023-03-04T14:11:42.623Z,1.70
2023-03-04T14:12:48.951Z,3.10
2023-03-04T14:13:51.890Z,5.15
2023-03-04T14:14:57.381Z,1.77
2023-03-04T14:16:00.187Z,2.80
2023-03-04T14:17:06.433Z,1.83
2023-03-04T14:18:08.200Z,1.55
2023-03-04T14:19:18.145Z,2.00
2023-03-04T14:20:26.798Z,1.70
2023-03-04T14:21:28.869Z,2.58
2023-03-04T14:22:33.213Z,2.35
2023-03-04T14:23:36.104Z,3.58
2023-03-04T14:24:39.908Z,2.55